»·PEaware :: N2102W KEGE-KASE

N2102W :: KEGE-KASE

FLIGHT INFORMATION

Flight Status: Arrived
Operator: Privately registered:
United States
More flights under this callsign
Pilot: Eric G. (5941)
Aircraft: DASSAULT AVIATION FALCON 50
(FA50)
More flights by this aircraft type
Origin: KEGE Eagle Co Regl
United States
Destination: KASE Aspen-Pitkin Co/Sardy
United States
More flights between these airports :: More routes between these airports
Route: GYPSM6 DBL
File this flight plan on PilotEdge
Remarks:
Altitude:
(Current/Filed)
17,000ft
Speed:
(Current/Filed)
345kts
Departed: 10-Oct-19 04:19 PM
Arrived: 10-Oct-19 04:40 PM
Distance/Time
Traveled:
26nm/0:21
Distance/Time
To Go:
Arrived

Flight Plot

Page will automatically refresh every two minutes.

Flight plan parsing failed; only flown route is shown


Map Options




Map Legend


Flown Route
Filed Route
Departure Airport
Arrival Airport
Navaid (VOR, NDB)
Fix

Horizontal Profiles

Position Reports

Time Latitude Longitude Heading Altitude Ground
Speed
10-Oct-19 15:55 39.641072 -106.911648 171 6520ft 0kts
10-Oct-19 15:56 39.641072 -106.911648 171 6520ft 0kts
10-Oct-19 15:57 39.641072 -106.911648 171 6520ft 0kts
10-Oct-19 15:58 39.641071 -106.911647 171 6520ft 0kts
10-Oct-19 15:59 39.641071 -106.911647 171 6520ft 0kts
10-Oct-19 16:00 39.641071 -106.911647 171 6520ft 0kts
10-Oct-19 16:01 39.641070 -106.911647 171 6520ft 0kts
10-Oct-19 16:03 39.641068 -106.911647 171 6520ft 0kts
10-Oct-19 16:04 39.641066 -106.911647 171 6520ft 0kts
10-Oct-19 16:05 39.641065 -106.911646 171 6520ft 0kts
10-Oct-19 16:06 39.641063 -106.911646 171 6520ft 0kts
10-Oct-19 16:07 39.641075 -106.911648 171 6520ft 1kts
10-Oct-19 16:08 39.641206 -106.911586 71 6520ft 0kts
10-Oct-19 16:09 39.641207 -106.911584 71 6520ft 0kts
10-Oct-19 16:10 39.641207 -106.911581 71 6520ft 0kts
10-Oct-19 16:11 39.641720 -106.910130 80 6520ft 10kts
10-Oct-19 16:12 39.642480 -106.908629 77 6520ft 6kts
10-Oct-19 16:13 39.642828 -106.905420 81 6520ft 11kts
10-Oct-19 16:14 39.643259 -106.901137 80 6520ft 7kts
10-Oct-19 16:15 39.643517 -106.900243 18 6520ft 0kts
10-Oct-19 16:16 39.643519 -106.900242 18 6520ft 0kts
10-Oct-19 16:17 39.643521 -106.900242 18 6520ft 0kts
10-Oct-19 16:18 39.644085 -106.900203 354 6520ft 5kts
10-Oct-19 16:18 39.643189 -106.912407 262 6520ft 127kts
10-Oct-19 16:20 39.621764 -106.966654 232 9031ft 162kts
10-Oct-19 16:21 39.612750 -107.022479 312 12002ft 185kts
10-Oct-19 16:22 39.662679 -107.044453 339 15441ft 186kts
10-Oct-19 16:22 39.705673 -107.062406 338 17050ft 222kts
10-Oct-19 16:23 39.774008 -107.092821 1 17001ft 312kts
10-Oct-19 16:25 39.843901 -106.966872 72 16997ft 424kts
10-Oct-19 16:26 39.871091 -106.819715 69 16978ft 399kts
10-Oct-19 16:26 39.893301 -106.717964 97 16701ft 318kts
10-Oct-19 16:27 39.832415 -106.675182 206 14928ft 249kts
10-Oct-19 16:28 39.769064 -106.702151 206 14875ft 238kts
10-Oct-19 16:29 39.705917 -106.732006 206 14867ft 237kts
10-Oct-19 16:30 39.648466 -106.759107 206 15039ft 241kts
10-Oct-19 16:31 39.586069 -106.791029 209 14189ft 237kts
10-Oct-19 16:32 39.529010 -106.822438 211 13423ft 203kts
10-Oct-19 16:33 39.479063 -106.857251 218 13426ft 207kts
10-Oct-19 16:34 39.435362 -106.909696 234 13418ft 229kts
10-Oct-19 16:35 39.379384 -106.948062 176 13163ft 251kts
10-Oct-19 16:36 39.319276 -106.910109 156 11260ft 217kts
10-Oct-19 16:37 39.266502 -106.889490 155 8483ft 155kts
10-Oct-19 16:38 39.226981 -106.870679 160 7825ft 121kts
10-Oct-19 16:39 39.218726 -106.866035 98 7825ft 6kts
10-Oct-19 16:40 39.219419 -106.865391 336 7825ft 0kts
10-Oct-19 16:41 39.219419 -106.865392 336 7825ft 0kts
10-Oct-19 16:42 39.219419 -106.865392 336 7825ft 0kts
10-Oct-19 16:43 39.219419 -106.865392 336 7825ft 0kts
10-Oct-19 16:44 39.219419 -106.865392 336 7825ft 0kts
10-Oct-19 16:45 39.219419 -106.865392 336 7825ft 0kts
10-Oct-19 16:46 39.219419 -106.865392 336 7825ft 0kts
10-Oct-19 16:47 39.219419 -106.865392 336 7825ft 0kts
10-Oct-19 16:48 39.219419 -106.865392 336 7825ft 0kts
10-Oct-19 16:49 39.219419 -106.865392 336 7825ft 0kts
10-Oct-19 16:50 39.219419 -106.865392 336 7825ft 0kts
10-Oct-19 16:51 39.219419 -106.865392 336 7825ft 0kts
10-Oct-19 16:52 39.219419 -106.865392 336 7825ft 0kts
10-Oct-19 16:53 39.219419 -106.865392 336 7825ft 0kts

Navigation Log

Ident Type
Flight plan parsing failed, navigation log unavailable